sensor_id;sensor_type;location;lat;lon;timestamp;P1;durP1;ratioP1;P2;durP2;ratioP2
61015;SDS011;46902;52.920;6.536;2022-09-09T00:04:16;8.27;;;6.53;;
61015;SDS011;46902;52.920;6.536;2022-09-09T00:07:03;13.75;;;6.18;;
61015;SDS011;46902;52.920;6.536;2022-09-09T00:09:47;9.13;;;6.63;;
61015;SDS011;46902;52.920;6.536;2022-09-09T00:21:08;11.90;;;6.72;;
61015;SDS011;46902;52.920;6.536;2022-09-09T00:23:44;14.07;;;6.75;;
61015;SDS011;46902;52.920;6.536;2022-09-09T00:26:35;14.05;;;6.50;;
61015;SDS011;46902;52.920;6.536;2022-09-09T00:31:41;9.23;;;6.38;;
61015;SDS011;46902;52.920;6.536;2022-09-09T00:34:14;10.55;;;5.78;;
61015;SDS011;46902;52.920;6.536;2022-09-09T00:36:44;8.95;;;6.53;;
61015;SDS011;46902;52.920;6.536;2022-09-09T00:39:27;7.45;;;6.45;;
61015;SDS011;46902;52.920;6.536;2022-09-09T00:42:10;11.60;;;6.28;;
61015;SDS011;46902;52.920;6.536;2022-09-09T00:44:38;10.73;;;6.18;;
61015;SDS011;46902;52.920;6.536;2022-09-09T00:52:36;10.00;;;6.47;;
61015;SDS011;46902;52.920;6.536;2022-09-09T00:57:59;9.85;;;5.90;;
61015;SDS011;46902;52.920;6.536;2022-09-09T01:06:44;7.68;;;6.13;;
61015;SDS011;46902;52.920;6.536;2022-09-09T01:11:55;9.68;;;5.68;;
61015;SDS011;46902;52.920;6.536;2022-09-09T01:17:04;12.52;;;6.05;;
61015;SDS011;46902;52.920;6.536;2022-09-09T01:28:28;9.93;;;5.53;;
61015;SDS011;46902;52.920;6.536;2022-09-09T01:30:54;9.88;;;5.70;;
61015;SDS011;46902;52.920;6.536;2022-09-09T01:33:22;9.95;;;5.53;;
61015;SDS011;46902;52.920;6.536;2022-09-09T01:35:58;8.40;;;5.40;;
61015;SDS011;46902;52.920;6.536;2022-09-09T01:38:33;7.25;;;4.97;;
61015;SDS011;46902;52.920;6.536;2022-09-09T01:41:00;12.18;;;5.78;;
61015;SDS011;46902;52.920;6.536;2022-09-09T01:43:26;6.72;;;5.20;;
61015;SDS011;46902;52.920;6.536;2022-09-09T01:45:56;7.82;;;5.60;;
61015;SDS011;46902;52.920;6.536;2022-09-09T01:48:25;10.90;;;5.55;;
61015;SDS011;46902;52.920;6.536;2022-09-09T01:50:52;11.30;;;5.40;;
61015;SDS011;46902;52.920;6.536;2022-09-09T01:53:18;12.43;;;5.95;;
61015;SDS011;46902;52.920;6.536;2022-09-09T01:58:44;9.95;;;5.32;;
61015;SDS011;46902;52.920;6.536;2022-09-09T02:03:56;9.20;;;5.13;;
61015;SDS011;46902;52.920;6.536;2022-09-09T02:06:27;7.35;;;4.60;;
61015;SDS011;46902;52.920;6.536;2022-09-09T02:09:05;10.75;;;4.57;;
61015;SDS011;46902;52.920;6.536;2022-09-09T02:11:32;7.88;;;5.05;;
61015;SDS011;46902;52.920;6.536;2022-09-09T02:14:16;9.07;;;4.97;;
61015;SDS011;46902;52.920;6.536;2022-09-09T02:16:54;7.78;;;4.35;;
61015;SDS011;46902;52.920;6.536;2022-09-09T02:21:53;7.60;;;4.38;;
61015;SDS011;46902;52.920;6.536;2022-09-09T02:24:20;10.38;;;4.38;;
61015;SDS011;46902;52.920;6.536;2022-09-09T02:26:48;8.93;;;4.60;;
61015;SDS011;46902;52.920;6.536;2022-09-09T02:29:59;7.43;;;4.60;;
61015;SDS011;46902;52.920;6.536;2022-09-09T02:32:09;10.40;;;4.50;;
61015;SDS011;46902;52.920;6.536;2022-09-09T02:34:40;11.43;;;4.45;;
61015;SDS011;46902;52.920;6.536;2022-09-09T02:37:09;8.98;;;4.75;;
61015;SDS011;46902;52.920;6.536;2022-09-09T02:39:37;7.93;;;5.10;;
61015;SDS011;46902;52.920;6.536;2022-09-09T02:42:06;9.50;;;4.35;;
61015;SDS011;46902;52.920;6.536;2022-09-09T02:44:33;7.70;;;4.32;;
61015;SDS011;46902;52.920;6.536;2022-09-09T02:49:33;10.02;;;5.30;;
61015;SDS011;46902;52.920;6.536;2022-09-09T02:54:40;8.98;;;4.75;;
61015;SDS011;46902;52.920;6.536;2022-09-09T02:57:19;8.15;;;4.35;;
61015;SDS011;46902;52.920;6.536;2022-09-09T02:59:52;12.23;;;5.20;;
61015;SDS011;46902;52.920;6.536;2022-09-09T03:02:21;7.50;;;4.53;;
61015;SDS011;46902;52.920;6.536;2022-09-09T03:04:47;8.90;;;4.03;;
61015;SDS011;46902;52.920;6.536;2022-09-09T03:07:16;10.50;;;4.50;;
61015;SDS011;46902;52.920;6.536;2022-09-09T03:09:43;6.78;;;4.00;;
61015;SDS011;46902;52.920;6.536;2022-09-09T03:12:09;8.38;;;4.40;;
61015;SDS011;46902;52.920;6.536;2022-09-09T03:14:36;7.88;;;3.65;;
61015;SDS011;46902;52.920;6.536;2022-09-09T03:17:03;8.32;;;4.03;;
61015;SDS011;46902;52.920;6.536;2022-09-09T03:19:29;6.22;;;3.50;;
61015;SDS011;46902;52.920;6.536;2022-09-09T03:21:56;6.93;;;4.03;;
61015;SDS011;46902;52.920;6.536;2022-09-09T03:24:22;7.38;;;3.80;;
61015;SDS011;46902;52.920;6.536;2022-09-09T03:26:47;6.97;;;3.40;;
61015;SDS011;46902;52.920;6.536;2022-09-09T03:29:13;10.52;;;4.10;;
61015;SDS011;46902;52.920;6.536;2022-09-09T03:31:40;6.22;;;3.63;;
61015;SDS011;46902;52.920;6.536;2022-09-09T03:34:06;5.75;;;3.35;;
61015;SDS011;46902;52.920;6.536;2022-09-09T03:36:32;8.13;;;4.18;;
61015;SDS011;46902;52.920;6.536;2022-09-09T03:38:58;6.93;;;3.50;;
61015;SDS011;46902;52.920;6.536;2022-09-09T03:41:24;6.80;;;3.85;;
61015;SDS011;46902;52.920;6.536;2022-09-09T03:43:51;8.95;;;3.60;;
61015;SDS011;46902;52.920;6.536;2022-09-09T03:46:17;6.03;;;3.20;;
61015;SDS011;46902;52.920;6.536;2022-09-09T03:48:43;9.93;;;3.85;;
61015;SDS011;46902;52.920;6.536;2022-09-09T03:51:09;6.82;;;3.78;;
61015;SDS011;46902;52.920;6.536;2022-09-09T03:53:35;8.85;;;3.72;;
61015;SDS011;46902;52.920;6.536;2022-09-09T03:56:03;7.15;;;4.25;;
61015;SDS011;46902;52.920;6.536;2022-09-09T03:58:31;8.20;;;3.80;;
61015;SDS011;46902;52.920;6.536;2022-09-09T04:03:25;6.88;;;4.63;;
61015;SDS011;46902;52.920;6.536;2022-09-09T04:05:51;7.60;;;4.38;;
61015;SDS011;46902;52.920;6.536;2022-09-09T04:08:18;9.82;;;4.65;;
61015;SDS011;46902;52.920;6.536;2022-09-09T04:10:46;9.82;;;5.10;;
61015;SDS011;46902;52.920;6.536;2022-09-09T04:13:12;7.32;;;5.13;;
61015;SDS011;46902;52.920;6.536;2022-09-09T04:15:40;6.90;;;4.90;;
61015;SDS011;46902;52.920;6.536;2022-09-09T04:18:05;8.88;;;5.30;;
61015;SDS011;46902;52.920;6.536;2022-09-09T04:20:31;8.70;;;5.32;;
61015;SDS011;46902;52.920;6.536;2022-09-09T04:22:57;8.82;;;5.47;;
61015;SDS011;46902;52.920;6.536;2022-09-09T04:25:23;8.80;;;5.22;;
61015;SDS011;46902;52.920;6.536;2022-09-09T04:27:53;7.38;;;5.18;;
61015;SDS011;46902;52.920;6.536;2022-09-09T04:30:23;7.80;;;6.00;;
61015;SDS011;46902;52.920;6.536;2022-09-09T04:32:50;8.82;;;5.53;;
61015;SDS011;46902;52.920;6.536;2022-09-09T04:35:15;7.80;;;5.45;;
61015;SDS011;46902;52.920;6.536;2022-09-09T04:37:41;8.88;;;6.38;;
61015;SDS011;46902;52.920;6.536;2022-09-09T04:40:07;8.55;;;6.22;;
61015;SDS011;46902;52.920;6.536;2022-09-09T04:42:38;9.60;;;6.43;;
61015;SDS011;46902;52.920;6.536;2022-09-09T04:45:04;7.75;;;6.78;;
61015;SDS011;46902;52.920;6.536;2022-09-09T04:47:31;11.20;;;6.60;;
61015;SDS011;46902;52.920;6.536;2022-09-09T04:49:57;8.00;;;6.65;;
61015;SDS011;46902;52.920;6.536;2022-09-09T04:52:23;11.15;;;6.97;;
61015;SDS011;46902;52.920;6.536;2022-09-09T04:54:48;9.75;;;7.13;;
61015;SDS011;46902;52.920;6.536;2022-09-09T04:57:19;10.55;;;7.65;;
61015;SDS011;46902;52.920;6.536;2022-09-09T04:59:44;7.78;;;7.03;;
61015;SDS011;46902;52.920;6.536;2022-09-09T05:02:10;10.00;;;7.32;;
61015;SDS011;46902;52.920;6.536;2022-09-09T05:04:36;9.60;;;7.45;;
61015;SDS011;46902;52.920;6.536;2022-09-09T05:07:02;9.88;;;6.75;;
61015;SDS011;46902;52.920;6.536;2022-09-09T05:09:28;9.38;;;6.90;;
61015;SDS011;46902;52.920;6.536;2022-09-09T05:11:54;9.55;;;6.75;;
61015;SDS011;46902;52.920;6.536;2022-09-09T05:14:20;10.77;;;7.10;;
61015;SDS011;46902;52.920;6.536;2022-09-09T05:16:45;8.45;;;6.65;;
61015;SDS011;46902;52.920;6.536;2022-09-09T05:19:12;9.90;;;7.22;;
61015;SDS011;46902;52.920;6.536;2022-09-09T05:21:37;11.10;;;7.35;;
61015;SDS011;46902;52.920;6.536;2022-09-09T05:24:03;10.75;;;7.15;;
61015;SDS011;46902;52.920;6.536;2022-09-09T05:26:29;10.15;;;7.18;;
61015;SDS011;46902;52.920;6.536;2022-09-09T05:28:55;9.15;;;6.40;;
61015;SDS011;46902;52.920;6.536;2022-09-09T05:31:21;9.13;;;6.93;;
61015;SDS011;46902;52.920;6.536;2022-09-09T05:33:47;8.52;;;6.28;;
61015;SDS011;46902;52.920;6.536;2022-09-09T05:36:18;9.57;;;6.40;;
61015;SDS011;46902;52.920;6.536;2022-09-09T05:38:45;8.52;;;6.57;;
61015;SDS011;46902;52.920;6.536;2022-09-09T05:41:12;9.50;;;6.43;;
61015;SDS011;46902;52.920;6.536;2022-09-09T05:43:40;7.18;;;5.80;;
61015;SDS011;46902;52.920;6.536;2022-09-09T05:46:25;7.20;;;6.43;;
61015;SDS011;46902;52.920;6.536;2022-09-09T05:48:51;7.22;;;5.65;;
61015;SDS011;46902;52.920;6.536;2022-09-09T05:51:21;9.13;;;6.82;;
61015;SDS011;46902;52.920;6.536;2022-09-09T05:53:49;8.45;;;6.63;;
61015;SDS011;46902;52.920;6.536;2022-09-09T05:56:15;8.80;;;6.47;;
61015;SDS011;46902;52.920;6.536;2022-09-09T05:58:46;11.27;;;7.20;;
61015;SDS011;46902;52.920;6.536;2022-09-09T06:01:13;8.90;;;6.50;;
61015;SDS011;46902;52.920;6.536;2022-09-09T06:03:47;7.15;;;6.45;;
61015;SDS011;46902;52.920;6.536;2022-09-09T06:06:14;9.65;;;7.13;;
61015;SDS011;46902;52.920;6.536;2022-09-09T06:08:47;8.95;;;6.45;;
61015;SDS011;46902;52.920;6.536;2022-09-09T06:11:20;9.43;;;6.18;;
61015;SDS011;46902;52.920;6.536;2022-09-09T06:13:47;7.35;;;6.55;;
61015;SDS011;46902;52.920;6.536;2022-09-09T06:16:17;7.65;;;6.25;;
61015;SDS011;46902;52.920;6.536;2022-09-09T06:18:44;7.30;;;6.60;;
61015;SDS011;46902;52.920;6.536;2022-09-09T06:21:29;8.07;;;6.03;;
61015;SDS011;46902;52.920;6.536;2022-09-09T06:23:56;11.30;;;6.65;;
61015;SDS011;46902;52.920;6.536;2022-09-09T06:28:52;9.88;;;6.88;;
61015;SDS011;46902;52.920;6.536;2022-09-09T06:31:20;9.30;;;6.47;;
61015;SDS011;46902;52.920;6.536;2022-09-09T06:33:48;6.75;;;5.80;;
61015;SDS011;46902;52.920;6.536;2022-09-09T06:38:41;9.10;;;6.63;;
61015;SDS011;46902;52.920;6.536;2022-09-09T06:41:08;7.07;;;6.03;;
61015;SDS011;46902;52.920;6.536;2022-09-09T06:43:35;7.03;;;6.18;;
61015;SDS011;46902;52.920;6.536;2022-09-09T06:46:02;7.63;;;5.60;;
61015;SDS011;46902;52.920;6.536;2022-09-09T06:48:29;8.85;;;6.60;;
61015;SDS011;46902;52.920;6.536;2022-09-09T06:51:09;9.70;;;6.75;;
61015;SDS011;46902;52.920;6.536;2022-09-09T06:53:36;9.00;;;6.05;;
61015;SDS011;46902;52.920;6.536;2022-09-09T06:58:35;8.55;;;6.60;;
61015;SDS011;46902;52.920;6.536;2022-09-09T07:01:14;7.80;;;6.00;;
61015;SDS011;46902;52.920;6.536;2022-09-09T07:03:42;7.97;;;5.80;;
61015;SDS011;46902;52.920;6.536;2022-09-09T07:06:13;11.48;;;6.80;;
61015;SDS011;46902;52.920;6.536;2022-09-09T07:08:41;8.05;;;5.53;;
61015;SDS011;46902;52.920;6.536;2022-09-09T07:11:08;8.65;;;5.85;;
61015;SDS011;46902;52.920;6.536;2022-09-09T07:13:34;7.78;;;5.60;;
61015;SDS011;46902;52.920;6.536;2022-09-09T07:16:06;7.43;;;5.63;;
61015;SDS011;46902;52.920;6.536;2022-09-09T07:18:33;8.30;;;5.28;;
61015;SDS011;46902;52.920;6.536;2022-09-09T07:21:00;7.82;;;5.13;;
61015;SDS011;46902;52.920;6.536;2022-09-09T07:23:27;8.32;;;5.60;;
61015;SDS011;46902;52.920;6.536;2022-09-09T07:25:53;9.38;;;5.50;;
61015;SDS011;46902;52.920;6.536;2022-09-09T07:28:20;7.93;;;4.82;;
61015;SDS011;46902;52.920;6.536;2022-09-09T07:30:53;7.57;;;5.07;;
61015;SDS011;46902;52.920;6.536;2022-09-09T07:33:23;5.90;;;4.50;;
61015;SDS011;46902;52.920;6.536;2022-09-09T07:35:51;10.45;;;5.13;;
61015;SDS011;46902;52.920;6.536;2022-09-09T07:38:17;5.72;;;4.63;;
61015;SDS011;46902;52.920;6.536;2022-09-09T07:40:44;7.70;;;4.75;;
61015;SDS011;46902;52.920;6.536;2022-09-09T07:43:10;8.25;;;4.78;;
61015;SDS011;46902;52.920;6.536;2022-09-09T07:45:36;7.20;;;4.60;;
61015;SDS011;46902;52.920;6.536;2022-09-09T07:48:02;7.30;;;4.38;;
61015;SDS011;46902;52.920;6.536;2022-09-09T07:50:29;6.35;;;4.60;;
61015;SDS011;46902;52.920;6.536;2022-09-09T07:52:54;10.88;;;5.00;;
61015;SDS011;46902;52.920;6.536;2022-09-09T07:55:21;7.72;;;4.82;;
61015;SDS011;46902;52.920;6.536;2022-09-09T07:57:50;8.85;;;4.85;;
61015;SDS011;46902;52.920;6.536;2022-09-09T08:00:16;9.40;;;4.75;;
61015;SDS011;46902;52.920;6.536;2022-09-09T08:02:43;9.95;;;4.38;;
61015;SDS011;46902;52.920;6.536;2022-09-09T08:05:08;11.25;;;5.00;;
61015;SDS011;46902;52.920;6.536;2022-09-09T08:07:34;10.60;;;4.45;;
61015;SDS011;46902;52.920;6.536;2022-09-09T08:10:00;7.97;;;4.50;;
61015;SDS011;46902;52.920;6.536;2022-09-09T08:12:25;10.10;;;4.75;;
61015;SDS011;46902;52.920;6.536;2022-09-09T08:14:51;8.70;;;4.35;;
61015;SDS011;46902;52.920;6.536;2022-09-09T08:17:17;9.30;;;4.22;;
61015;SDS011;46902;52.920;6.536;2022-09-09T08:19:42;6.80;;;3.75;;
61015;SDS011;46902;52.920;6.536;2022-09-09T08:22:09;9.13;;;3.83;;
61015;SDS011;46902;52.920;6.536;2022-09-09T08:24:35;8.30;;;4.40;;
61015;SDS011;46902;52.920;6.536;2022-09-09T08:27:01;9.50;;;4.50;;
61015;SDS011;46902;52.920;6.536;2022-09-09T08:29:26;9.48;;;4.63;;
61015;SDS011;46902;52.920;6.536;2022-09-09T08:31:54;12.95;;;4.78;;
61015;SDS011;46902;52.920;6.536;2022-09-09T08:34:22;8.93;;;4.47;;
61015;SDS011;46902;52.920;6.536;2022-09-09T08:36:49;9.38;;;4.70;;
61015;SDS011;46902;52.920;6.536;2022-09-09T08:39:16;9.65;;;3.85;;
61015;SDS011;46902;52.920;6.536;2022-09-09T08:55:27;6.20;;;3.53;;
61015;SDS011;46902;52.920;6.536;2022-09-09T08:58:21;10.07;;;3.72;;
61015;SDS011;46902;52.920;6.536;2022-09-09T09:03:55;9.43;;;3.25;;
61015;SDS011;46902;52.920;6.536;2022-09-09T09:12:07;9.68;;;2.90;;
61015;SDS011;46902;52.920;6.536;2022-09-09T09:14:41;7.70;;;2.83;;
61015;SDS011;46902;52.920;6.536;2022-09-09T09:17:10;9.30;;;2.63;;
61015;SDS011;46902;52.920;6.536;2022-09-09T09:19:39;11.75;;;3.08;;
61015;SDS011;46902;52.920;6.536;2022-09-09T09:27:25;14.10;;;2.83;;
61015;SDS011;46902;52.920;6.536;2022-09-09T09:29:56;11.65;;;2.97;;
61015;SDS011;46902;52.920;6.536;2022-09-09T09:32:23;8.38;;;2.22;;
61015;SDS011;46902;52.920;6.536;2022-09-09T09:34:51;11.48;;;2.38;;
61015;SDS011;46902;52.920;6.536;2022-09-09T09:37:31;9.93;;;2.63;;
61015;SDS011;46902;52.920;6.536;2022-09-09T09:40:13;8.25;;;2.42;;
61015;SDS011;46902;52.920;6.536;2022-09-09T09:48:13;8.32;;;2.50;;
61015;SDS011;46902;52.920;6.536;2022-09-09T09:51:13;12.48;;;2.58;;
61015;SDS011;46902;52.920;6.536;2022-09-09T09:53:35;9.18;;;2.72;;
61015;SDS011;46902;52.920;6.536;2022-09-09T09:56:10;9.43;;;2.20;;
61015;SDS011;46902;52.920;6.536;2022-09-09T10:01:23;13.23;;;2.70;;
61015;SDS011;46902;52.920;6.536;2022-09-09T10:03:57;10.98;;;1.80;;
61015;SDS011;46902;52.920;6.536;2022-09-09T10:06:34;10.65;;;2.13;;
61015;SDS011;46902;52.920;6.536;2022-09-09T10:09:02;8.00;;;2.00;;
61015;SDS011;46902;52.920;6.536;2022-09-09T10:11:36;8.45;;;2.25;;
61015;SDS011;46902;52.920;6.536;2022-09-09T10:14:22;10.05;;;2.17;;
61015;SDS011;46902;52.920;6.536;2022-09-09T10:17:07;11.82;;;1.98;;
61015;SDS011;46902;52.920;6.536;2022-09-09T10:22:33;8.63;;;2.00;;
61015;SDS011;46902;52.920;6.536;2022-09-09T10:33:12;6.28;;;1.70;;
61015;SDS011;46902;52.920;6.536;2022-09-09T10:35:46;4.55;;;1.10;;
61015;SDS011;46902;52.920;6.536;2022-09-09T10:52:09;10.63;;;1.55;;
61015;SDS011;46902;52.920;6.536;2022-09-09T10:54:58;10.48;;;1.80;;
61015;SDS011;46902;52.920;6.536;2022-09-09T11:00:14;9.90;;;1.80;;
61015;SDS011;46902;52.920;6.536;2022-09-09T11:02:44;10.93;;;2.05;;
61015;SDS011;46902;52.920;6.536;2022-09-09T11:07:59;7.32;;;1.50;;
61015;SDS011;46902;52.920;6.536;2022-09-09T11:10:44;5.00;;;1.33;;
61015;SDS011;46902;52.920;6.536;2022-09-09T11:13:22;9.15;;;2.28;;
61015;SDS011;46902;52.920;6.536;2022-09-09T11:15:53;6.15;;;1.83;;
61015;SDS011;46902;52.920;6.536;2022-09-09T11:18:25;8.07;;;1.70;;
61015;SDS011;46902;52.920;6.536;2022-09-09T11:20:55;11.85;;;1.85;;
61015;SDS011;46902;52.920;6.536;2022-09-09T11:23:33;7.70;;;1.80;;
61015;SDS011;46902;52.920;6.536;2022-09-09T11:26:02;9.05;;;1.58;;
61015;SDS011;46902;52.920;6.536;2022-09-09T11:31:21;8.18;;;2.17;;
61015;SDS011;46902;52.920;6.536;2022-09-09T11:37:21;6.70;;;1.60;;
61015;SDS011;46902;52.920;6.536;2022-09-09T11:40:14;12.65;;;1.60;;
61015;SDS011;46902;52.920;6.536;2022-09-09T11:42:46;8.77;;;1.65;;
61015;SDS011;46902;52.920;6.536;2022-09-09T11:47:59;8.82;;;1.98;;
61015;SDS011;46902;52.920;6.536;2022-09-09T11:50:27;6.88;;;1.88;;
61015;SDS011;46902;52.920;6.536;2022-09-09T11:53:05;5.82;;;1.42;;
61015;SDS011;46902;52.920;6.536;2022-09-09T11:55:38;13.48;;;1.90;;
61015;SDS011;46902;52.920;6.536;2022-09-09T11:58:05;8.05;;;1.60;;
61015;SDS011;46902;52.920;6.536;2022-09-09T12:00:44;9.48;;;1.85;;
61015;SDS011;46902;52.920;6.536;2022-09-09T12:05:56;9.00;;;2.03;;
61015;SDS011;46902;52.920;6.536;2022-09-09T12:08:26;6.30;;;1.27;;
61015;SDS011;46902;52.920;6.536;2022-09-09T12:10:54;9.35;;;1.60;;
61015;SDS011;46902;52.920;6.536;2022-09-09T12:13:22;6.32;;;1.80;;
61015;SDS011;46902;52.920;6.536;2022-09-09T12:15:53;8.93;;;2.15;;
61015;SDS011;46902;52.920;6.536;2022-09-09T12:18:31;5.25;;;1.30;;
61015;SDS011;46902;52.920;6.536;2022-09-09T12:23:40;7.47;;;1.55;;
61015;SDS011;46902;52.920;6.536;2022-09-09T12:36:39;8.00;;;1.52;;
61015;SDS011;46902;52.920;6.536;2022-09-09T12:39:10;5.22;;;1.40;;
61015;SDS011;46902;52.920;6.536;2022-09-09T12:41:52;8.48;;;1.80;;
61015;SDS011;46902;52.920;6.536;2022-09-09T12:44:29;6.97;;;1.60;;
61015;SDS011;46902;52.920;6.536;2022-09-09T12:46:55;7.00;;;1.40;;
61015;SDS011;46902;52.920;6.536;2022-09-09T12:52:06;7.05;;;1.55;;
61015;SDS011;46902;52.920;6.536;2022-09-09T12:54:38;7.13;;;1.42;;
61015;SDS011;46902;52.920;6.536;2022-09-09T12:57:11;5.28;;;1.08;;
61015;SDS011;46902;52.920;6.536;2022-09-09T12:59:39;6.57;;;1.40;;
61015;SDS011;46902;52.920;6.536;2022-09-09T13:02:14;10.63;;;1.85;;
61015;SDS011;46902;52.920;6.536;2022-09-09T13:04:51;6.05;;;1.48;;
61015;SDS011;46902;52.920;6.536;2022-09-09T13:07:18;6.95;;;1.67;;
61015;SDS011;46902;52.920;6.536;2022-09-09T13:09:47;7.13;;;1.95;;
61015;SDS011;46902;52.920;6.536;2022-09-09T13:12:18;8.35;;;1.90;;
61015;SDS011;46902;52.920;6.536;2022-09-09T13:14:47;7.07;;;1.50;;
61015;SDS011;46902;52.920;6.536;2022-09-09T13:17:22;9.82;;;2.03;;
61015;SDS011;46902;52.920;6.536;2022-09-09T13:19:51;6.55;;;1.27;;
61015;SDS011;46902;52.920;6.536;2022-09-09T13:24:59;5.13;;;1.00;;
61015;SDS011;46902;52.920;6.536;2022-09-09T13:27:31;7.90;;;1.30;;
61015;SDS011;46902;52.920;6.536;2022-09-09T13:29:59;5.75;;;1.13;;
61015;SDS011;46902;52.920;6.536;2022-09-09T13:32:26;7.18;;;1.52;;
61015;SDS011;46902;52.920;6.536;2022-09-09T13:34:53;6.25;;;1.33;;
61015;SDS011;46902;52.920;6.536;2022-09-09T13:37:26;5.47;;;1.20;;
61015;SDS011;46902;52.920;6.536;2022-09-09T13:40:02;4.05;;;1.05;;
61015;SDS011;46902;52.920;6.536;2022-09-09T13:42:30;3.35;;;0.80;;
61015;SDS011;46902;52.920;6.536;2022-09-09T13:45:00;6.20;;;0.98;;
61015;SDS011;46902;52.920;6.536;2022-09-09T13:47:27;7.07;;;1.17;;
61015;SDS011;46902;52.920;6.536;2022-09-09T13:49:56;5.28;;;1.00;;
61015;SDS011;46902;52.920;6.536;2022-09-09T13:52:22;4.85;;;1.35;;
61015;SDS011;46902;52.920;6.536;2022-09-09T13:54:48;2.65;;;0.45;;
61015;SDS011;46902;52.920;6.536;2022-09-09T13:57:20;2.85;;;0.45;;
61015;SDS011;46902;52.920;6.536;2022-09-09T13:59:48;2.45;;;0.50;;
61015;SDS011;46902;52.920;6.536;2022-09-09T14:02:14;3.70;;;0.75;;
61015;SDS011;46902;52.920;6.536;2022-09-09T14:04:42;5.95;;;0.40;;
61015;SDS011;46902;52.920;6.536;2022-09-09T14:07:14;3.65;;;0.45;;
61015;SDS011;46902;52.920;6.536;2022-09-09T14:09:41;3.05;;;0.40;;
61015;SDS011;46902;52.920;6.536;2022-09-09T14:12:13;5.60;;;1.13;;
61015;SDS011;46902;52.920;6.536;2022-09-09T14:14:40;6.93;;;1.08;;
61015;SDS011;46902;52.920;6.536;2022-09-09T14:17:07;6.07;;;1.00;;
61015;SDS011;46902;52.920;6.536;2022-09-09T14:19:33;6.18;;;0.90;;
61015;SDS011;46902;52.920;6.536;2022-09-09T14:21:58;6.18;;;1.20;;
61015;SDS011;46902;52.920;6.536;2022-09-09T14:24:24;4.68;;;1.00;;
61015;SDS011;46902;52.920;6.536;2022-09-09T14:26:50;5.28;;;1.08;;
61015;SDS011;46902;52.920;6.536;2022-09-09T14:29:16;5.88;;;0.90;;
61015;SDS011;46902;52.920;6.536;2022-09-09T14:31:42;3.88;;;0.95;;
61015;SDS011;46902;52.920;6.536;2022-09-09T14:34:07;1.77;;;0.50;;
61015;SDS011;46902;52.920;6.536;2022-09-09T14:36:34;4.63;;;0.43;;
61015;SDS011;46902;52.920;6.536;2022-09-09T14:39:00;3.38;;;0.90;;
61015;SDS011;46902;52.920;6.536;2022-09-09T14:41:26;3.13;;;0.70;;
61015;SDS011;46902;52.920;6.536;2022-09-09T14:43:51;5.03;;;0.50;;
61015;SDS011;46902;52.920;6.536;2022-09-09T14:46:19;3.45;;;0.70;;
61015;SDS011;46902;52.920;6.536;2022-09-09T14:48:45;3.92;;;0.80;;
61015;SDS011;46902;52.920;6.536;2022-09-09T14:51:17;3.35;;;0.60;;
61015;SDS011;46902;52.920;6.536;2022-09-09T14:53:45;4.38;;;0.77;;
61015;SDS011;46902;52.920;6.536;2022-09-09T14:56:16;4.75;;;0.90;;
61015;SDS011;46902;52.920;6.536;2022-09-09T15:01:13;2.88;;;0.73;;
61015;SDS011;46902;52.920;6.536;2022-09-09T15:03:48;4.35;;;0.73;;
61015;SDS011;46902;52.920;6.536;2022-09-09T15:06:18;4.47;;;0.80;;
61015;SDS011;46902;52.920;6.536;2022-09-09T15:08:44;5.45;;;0.93;;
61015;SDS011;46902;52.920;6.536;2022-09-09T15:11:11;4.43;;;0.85;;
61015;SDS011;46902;52.920;6.536;2022-09-09T15:13:39;3.40;;;0.60;;
61015;SDS011;46902;52.920;6.536;2022-09-09T15:16:08;3.60;;;0.70;;
61015;SDS011;46902;52.920;6.536;2022-09-09T15:18:37;3.28;;;0.70;;
61015;SDS011;46902;52.920;6.536;2022-09-09T15:21:08;2.70;;;0.60;;
61015;SDS011;46902;52.920;6.536;2022-09-09T15:23:35;3.72;;;0.80;;
61015;SDS011;46902;52.920;6.536;2022-09-09T15:26:01;4.93;;;1.10;;
61015;SDS011;46902;52.920;6.536;2022-09-09T15:28:27;3.97;;;0.90;;
61015;SDS011;46902;52.920;6.536;2022-09-09T15:30:54;4.93;;;0.88;;
61015;SDS011;46902;52.920;6.536;2022-09-09T15:33:20;2.47;;;0.70;;
61015;SDS011;46902;52.920;6.536;2022-09-09T15:35:47;3.80;;;0.88;;
61015;SDS011;46902;52.920;6.536;2022-09-09T15:38:14;3.05;;;0.68;;
61015;SDS011;46902;52.920;6.536;2022-09-09T15:40:41;2.63;;;0.52;;
61015;SDS011;46902;52.920;6.536;2022-09-09T15:43:08;4.13;;;0.90;;
61015;SDS011;46902;52.920;6.536;2022-09-09T15:45:34;4.10;;;0.88;;
61015;SDS011;46902;52.920;6.536;2022-09-09T15:48:00;4.90;;;0.93;;
61015;SDS011;46902;52.920;6.536;2022-09-09T15:50:26;4.65;;;1.10;;
61015;SDS011;46902;52.920;6.536;2022-09-09T15:52:56;3.15;;;0.95;;
61015;SDS011;46902;52.920;6.536;2022-09-09T15:55:21;4.82;;;0.77;;
61015;SDS011;46902;52.920;6.536;2022-09-09T15:57:50;4.35;;;0.82;;
61015;SDS011;46902;52.920;6.536;2022-09-09T16:00:18;3.92;;;0.77;;
61015;SDS011;46902;52.920;6.536;2022-09-09T16:02:47;4.30;;;0.70;;
61015;SDS011;46902;52.920;6.536;2022-09-09T16:05:13;2.75;;;0.90;;
61015;SDS011;46902;52.920;6.536;2022-09-09T16:07:39;2.92;;;0.80;;
61015;SDS011;46902;52.920;6.536;2022-09-09T16:10:07;5.63;;;1.10;;
61015;SDS011;46902;52.920;6.536;2022-09-09T16:12:33;5.38;;;0.98;;
61015;SDS011;46902;52.920;6.536;2022-09-09T16:14:59;3.78;;;0.85;;
61015;SDS011;46902;52.920;6.536;2022-09-09T16:17:25;6.13;;;0.80;;
61015;SDS011;46902;52.920;6.536;2022-09-09T16:19:52;6.50;;;0.77;;
61015;SDS011;46902;52.920;6.536;2022-09-09T16:22:19;3.88;;;0.77;;
61015;SDS011;46902;52.920;6.536;2022-09-09T16:24:44;3.15;;;0.98;;
61015;SDS011;46902;52.920;6.536;2022-09-09T16:27:10;3.92;;;0.98;;
61015;SDS011;46902;52.920;6.536;2022-09-09T16:29:36;4.32;;;0.93;;
61015;SDS011;46902;52.920;6.536;2022-09-09T16:32:02;4.93;;;0.85;;
61015;SDS011;46902;52.920;6.536;2022-09-09T16:34:28;3.05;;;0.80;;
61015;SDS011;46902;52.920;6.536;2022-09-09T16:36:54;4.45;;;1.25;;
61015;SDS011;46902;52.920;6.536;2022-09-09T16:39:19;3.60;;;0.75;;
61015;SDS011;46902;52.920;6.536;2022-09-09T16:41:46;3.17;;;0.57;;
61015;SDS011;46902;52.920;6.536;2022-09-09T16:44:13;6.32;;;1.15;;
61015;SDS011;46902;52.920;6.536;2022-09-09T16:46:42;3.80;;;0.80;;
61015;SDS011;46902;52.920;6.536;2022-09-09T16:49:10;2.50;;;0.82;;
61015;SDS011;46902;52.920;6.536;2022-09-09T16:51:38;2.88;;;0.80;;
61015;SDS011;46902;52.920;6.536;2022-09-09T16:54:14;2.97;;;0.80;;
61015;SDS011;46902;52.920;6.536;2022-09-09T16:56:42;5.80;;;0.82;;
61015;SDS011;46902;52.920;6.536;2022-09-09T16:59:16;2.47;;;0.90;;
61015;SDS011;46902;52.920;6.536;2022-09-09T17:01:43;6.85;;;1.10;;
61015;SDS011;46902;52.920;6.536;2022-09-09T17:04:11;5.75;;;1.30;;
61015;SDS011;46902;52.920;6.536;2022-09-09T17:06:46;4.38;;;1.05;;
61015;SDS011;46902;52.920;6.536;2022-09-09T17:09:14;4.85;;;1.23;;
61015;SDS011;46902;52.920;6.536;2022-09-09T17:11:40;6.35;;;1.42;;
61015;SDS011;46902;52.920;6.536;2022-09-09T17:14:06;4.03;;;1.23;;
61015;SDS011;46902;52.920;6.536;2022-09-09T17:16:34;5.35;;;1.48;;
61015;SDS011;46902;52.920;6.536;2022-09-09T17:19:00;6.22;;;1.13;;
61015;SDS011;46902;52.920;6.536;2022-09-09T17:21:27;4.72;;;1.25;;
61015;SDS011;46902;52.920;6.536;2022-09-09T17:23:53;5.82;;;1.30;;
61015;SDS011;46902;52.920;6.536;2022-09-09T17:26:21;3.70;;;1.23;;
61015;SDS011;46902;52.920;6.536;2022-09-09T17:28:48;4.90;;;1.00;;
61015;SDS011;46902;52.920;6.536;2022-09-09T17:31:14;5.93;;;1.50;;
61015;SDS011;46902;52.920;6.536;2022-09-09T17:33:43;4.20;;;1.13;;
61015;SDS011;46902;52.920;6.536;2022-09-09T17:38:42;4.80;;;1.55;;
61015;SDS011;46902;52.920;6.536;2022-09-09T17:41:13;7.10;;;1.90;;
61015;SDS011;46902;52.920;6.536;2022-09-09T17:43:41;4.45;;;1.40;;
61015;SDS011;46902;52.920;6.536;2022-09-09T17:46:11;5.03;;;1.58;;